createdAt,value
2023-04-16T00:00:43.127Z,11.77
2023-04-16T00:03:09.820Z,18.27
2023-04-16T00:05:36.652Z,12.35
2023-04-16T00:08:03.368Z,14.00
2023-04-16T00:10:29.903Z,12.40
2023-04-16T00:12:56.403Z,12.82
2023-04-16T00:15:23.173Z,11.38
2023-04-16T00:17:49.808Z,13.07
2023-04-16T00:20:16.579Z,12.32
2023-04-16T00:22:43.110Z,12.35
2023-04-16T00:25:09.718Z,15.05
2023-04-16T00:27:36.334Z,14.07
2023-04-16T00:30:03.578Z,14.32
2023-04-16T00:32:30.806Z,12.88
2023-04-16T00:34:57.403Z,10.98
2023-04-16T00:37:24.011Z,10.90
2023-04-16T00:39:50.831Z,14.80
2023-04-16T00:42:17.368Z,13.00
2023-04-16T00:44:43.881Z,8.20
2023-04-16T00:47:11.089Z,16.20
2023-04-16T00:49:37.765Z,14.18
2023-04-16T00:52:04.570Z,12.07
2023-04-16T00:54:32.246Z,17.88
2023-04-16T00:56:59.842Z,14.77
2023-04-16T00:59:27.173Z,15.32
2023-04-16T01:01:54.092Z,16.52
2023-04-16T01:04:21.412Z,13.38
2023-04-16T01:06:48.073Z,16.45
2023-04-16T01:09:14.638Z,14.82
2023-04-16T01:11:41.200Z,14.52
2023-04-16T01:14:08.655Z,18.58
2023-04-16T01:16:35.207Z,12.57
2023-04-16T01:19:01.764Z,13.38
2023-04-16T01:21:28.517Z,15.88
2023-04-16T01:23:55.932Z,13.93
2023-04-16T01:26:22.408Z,14.90
2023-04-16T01:28:48.911Z,11.95
2023-04-16T01:31:15.454Z,14.10
2023-04-16T01:33:42.035Z,18.02
2023-04-16T01:36:08.631Z,17.67
2023-04-16T01:38:35.152Z,14.60
2023-04-16T01:41:01.974Z,20.83
2023-04-16T01:43:28.563Z,17.90
2023-04-16T01:46:14.175Z,17.48
2023-04-16T01:48:40.831Z,17.40
2023-04-16T01:51:07.313Z,19.05
2023-04-16T01:53:36.541Z,20.60
2023-04-16T01:56:03.784Z,18.02
2023-04-16T01:58:31.158Z,18.35
2023-04-16T02:00:57.972Z,21.30
2023-04-16T02:03:24.951Z,26.65
2023-04-16T02:05:52.113Z,19.38
2023-04-16T02:08:18.662Z,13.77
2023-04-16T02:10:50.067Z,22.38
2023-04-16T02:13:17.311Z,20.60
2023-04-16T02:15:48.449Z,20.80
2023-04-16T02:18:15.109Z,23.83
2023-04-16T02:20:46.704Z,25.05
2023-04-16T02:23:15.143Z,22.80
2023-04-16T02:25:43.323Z,21.85
2023-04-16T02:28:11.674Z,25.08
2023-04-16T02:30:39.343Z,24.08
2023-04-16T02:33:07.512Z,19.08
2023-04-16T02:35:38.522Z,18.45
2023-04-16T02:38:05.451Z,19.52
2023-04-16T02:40:32.174Z,20.13
2023-04-16T02:42:58.701Z,23.00
2023-04-16T02:45:25.643Z,24.02
2023-04-16T02:47:52.469Z,23.85
2023-04-16T02:50:19.171Z,23.52
2023-04-16T02:52:45.932Z,22.05
2023-04-16T02:55:12.467Z,24.10
2023-04-16T02:57:39.177Z,27.23
2023-04-16T03:00:06.288Z,20.83
2023-04-16T03:02:32.941Z,20.70
2023-04-16T03:04:59.477Z,23.00
2023-04-16T03:07:26.283Z,24.00
2023-04-16T03:09:52.896Z,19.85
2023-04-16T03:12:19.396Z,22.45
2023-04-16T03:14:46.101Z,17.48
2023-04-16T03:17:12.722Z,21.48
2023-04-16T03:19:39.276Z,17.40
2023-04-16T03:22:05.915Z,14.68
2023-04-16T03:24:32.425Z,21.65
2023-04-16T03:26:59.036Z,15.60
2023-04-16T03:29:26.776Z,17.67
2023-04-16T03:31:53.440Z,19.38
2023-04-16T03:34:19.958Z,20.55
2023-04-16T03:36:46.491Z,19.70
2023-04-16T03:39:13.061Z,24.25
2023-04-16T03:41:39.585Z,21.55
2023-04-16T03:44:06.235Z,25.42
2023-04-16T03:46:32.732Z,18.33
2023-04-16T03:48:59.319Z,22.92
2023-04-16T03:51:26.449Z,21.45
2023-04-16T03:53:53.117Z,15.27
2023-04-16T03:56:19.740Z,18.75
2023-04-16T03:58:46.259Z,21.58
2023-04-16T04:01:12.757Z,18.65
2023-04-16T04:03:39.537Z,22.42
2023-04-16T04:06:09.466Z,26.08
2023-04-16T04:08:36.560Z,22.30
2023-04-16T04:11:03.060Z,23.17
2023-04-16T04:13:49.945Z,22.20
2023-04-16T04:16:16.488Z,25.77
2023-04-16T04:18:44.450Z,23.25
2023-04-16T04:21:11.356Z,22.55
2023-04-16T04:23:37.824Z,24.52
2023-04-16T04:26:05.670Z,22.80
2023-04-16T04:28:33.344Z,21.60
2023-04-16T04:31:00.810Z,21.55
2023-04-16T04:33:28.265Z,20.85
2023-04-16T04:35:55.715Z,19.08
2023-04-16T04:38:25.303Z,21.63
2023-04-16T04:40:52.888Z,21.23
2023-04-16T04:43:20.342Z,24.63
2023-04-16T04:45:47.387Z,23.00
2023-04-16T04:48:13.926Z,23.23
2023-04-16T04:50:41.791Z,23.98
2023-04-16T04:53:11.525Z,26.42
2023-04-16T04:55:38.968Z,24.65
2023-04-16T04:58:06.406Z,24.08
2023-04-16T05:00:33.823Z,29.20
2023-04-16T05:03:05.977Z,23.15
2023-04-16T05:05:32.810Z,24.08
2023-04-16T05:08:00.636Z,32.17
2023-04-16T05:10:27.986Z,24.30
2023-04-16T05:12:57.344Z,20.48
2023-04-16T05:15:23.964Z,22.95
2023-04-16T05:17:50.761Z,26.23
2023-04-16T05:20:17.329Z,27.20
2023-04-16T05:22:43.835Z,28.83
2023-04-16T05:25:10.412Z,28.05
2023-04-16T05:27:37.130Z,25.00
2023-04-16T05:30:04.060Z,26.55
2023-04-16T05:32:30.693Z,24.15
2023-04-16T05:34:57.248Z,23.90
2023-04-16T05:37:23.808Z,24.95
2023-04-16T05:39:50.715Z,21.90
2023-04-16T05:42:17.317Z,21.35
2023-04-16T05:44:43.947Z,23.65
2023-04-16T05:47:10.843Z,24.02
2023-04-16T05:49:37.365Z,18.95
2023-04-16T05:52:05.294Z,26.55
2023-04-16T05:54:31.822Z,22.67
2023-04-16T05:56:58.293Z,23.23
2023-04-16T05:59:24.830Z,23.27
2023-04-16T06:01:51.467Z,23.05
2023-04-16T06:04:18.134Z,27.77
2023-04-16T06:06:44.832Z,26.80
2023-04-16T06:09:11.804Z,25.95
2023-04-16T06:11:38.500Z,24.35
2023-04-16T06:14:05.049Z,25.25
2023-04-16T06:16:31.752Z,22.10
2023-04-16T06:18:58.429Z,25.75
2023-04-16T06:21:25.048Z,22.70
2023-04-16T06:23:51.601Z,23.50
2023-04-16T06:26:19.169Z,22.05
2023-04-16T06:28:45.661Z,23.63
2023-04-16T06:31:15.128Z,26.00
2023-04-16T06:33:41.665Z,27.00
2023-04-16T06:36:08.217Z,18.40
2023-04-16T06:38:36.003Z,23.27
2023-04-16T06:41:02.654Z,22.70
2023-04-16T06:43:30.067Z,22.10
2023-04-16T06:45:56.574Z,22.17
2023-04-16T06:48:23.014Z,26.75
2023-04-16T06:50:49.652Z,24.77
2023-04-16T06:53:16.347Z,24.92
2023-04-16T06:55:42.888Z,24.33
2023-04-16T06:58:09.526Z,22.75
2023-04-16T07:00:36.096Z,26.02
2023-04-16T07:03:03.327Z,22.95
2023-04-16T07:05:30.106Z,23.23
2023-04-16T07:07:57.646Z,26.40
2023-04-16T07:10:24.441Z,26.30
2023-04-16T07:12:51.082Z,28.05
2023-04-16T07:15:17.611Z,34.67
2023-04-16T07:17:44.110Z,30.02
2023-04-16T07:20:17.650Z,44.15
2023-04-16T07:22:44.314Z,31.98
2023-04-16T07:25:10.994Z,30.77
2023-04-16T07:27:37.524Z,30.50
2023-04-16T07:30:04.342Z,28.85
2023-04-16T07:32:30.949Z,19.77
2023-04-16T07:34:58.048Z,31.60
2023-04-16T07:37:24.899Z,30.17
2023-04-16T07:39:53.032Z,20.92
2023-04-16T07:42:19.861Z,25.30
2023-04-16T07:44:46.705Z,27.70
2023-04-16T07:47:13.676Z,23.00
2023-04-16T07:49:40.576Z,22.85
2023-04-16T07:52:07.370Z,21.05
2023-04-16T07:54:34.243Z,23.38
2023-04-16T07:57:02.130Z,26.40
2023-04-16T07:59:29.065Z,22.85
2023-04-16T08:01:56.493Z,23.45
2023-04-16T08:04:25.665Z,22.10
2023-04-16T08:06:53.133Z,21.00
2023-04-16T08:09:21.624Z,22.45
2023-04-16T08:11:49.903Z,22.23
2023-04-16T08:14:17.059Z,23.92
2023-04-16T08:16:43.541Z,23.48
2023-04-16T08:19:10.386Z,24.02
2023-04-16T08:21:37.191Z,23.52
2023-04-16T08:24:03.977Z,22.98
2023-04-16T08:26:30.462Z,19.55
2023-04-16T08:28:56.916Z,26.30
2023-04-16T08:31:23.431Z,19.35
2023-04-16T08:33:50.129Z,23.02
2023-04-16T08:36:16.628Z,20.63
2023-04-16T08:38:43.180Z,22.63
2023-04-16T08:41:12.874Z,24.45
2023-04-16T08:43:44.750Z,26.15
2023-04-16T08:46:12.459Z,26.38
2023-04-16T08:48:42.936Z,26.85
2023-04-16T08:51:11.191Z,26.27
2023-04-16T08:53:51.763Z,25.10
2023-04-16T08:56:21.140Z,25.95
2023-04-16T08:58:50.059Z,22.33
2023-04-16T09:03:48.688Z,25.35
2023-04-16T09:06:17.017Z,22.02
2023-04-16T09:08:48.093Z,22.70
2023-04-16T09:11:17.987Z,16.50
2023-04-16T09:13:46.256Z,19.92
2023-04-16T09:16:14.028Z,19.08
2023-04-16T09:18:41.374Z,21.95
2023-04-16T09:21:11.277Z,20.80
2023-04-16T09:23:41.180Z,21.17
2023-04-16T09:26:07.729Z,22.08
2023-04-16T09:28:47.949Z,24.13
2023-04-16T09:31:16.159Z,26.60
2023-04-16T09:33:44.152Z,22.10
2023-04-16T09:36:11.101Z,24.70
2023-04-16T09:38:52.020Z,22.83
2023-04-16T09:41:19.091Z,24.30
2023-04-16T09:43:59.631Z,22.23
2023-04-16T09:46:36.523Z,19.83
2023-04-16T09:49:15.655Z,20.17
2023-04-16T09:51:44.207Z,19.30
2023-04-16T09:54:10.913Z,29.95
2023-04-16T09:56:42.669Z,24.27
2023-04-16T09:59:17.402Z,22.45
2023-04-16T10:01:46.711Z,21.50
2023-04-16T10:04:13.400Z,21.27
2023-04-16T10:06:39.940Z,20.25
2023-04-16T10:09:11.012Z,18.38
2023-04-16T10:11:37.998Z,25.27
2023-04-16T10:14:04.556Z,23.98
2023-04-16T10:16:31.128Z,21.73
2023-04-16T10:18:59.085Z,18.35
2023-04-16T10:21:33.766Z,20.67
2023-04-16T10:24:01.187Z,22.92
2023-04-16T10:26:29.891Z,20.73
2023-04-16T10:28:58.334Z,21.45
2023-04-16T10:31:27.178Z,19.23
2023-04-16T10:33:54.318Z,17.90
2023-04-16T10:36:26.421Z,18.25
2023-04-16T10:38:58.271Z,23.98
2023-04-16T10:41:26.780Z,18.38
2023-04-16T10:44:03.276Z,19.55
2023-04-16T10:46:50.247Z,21.95
2023-04-16T10:49:19.351Z,20.40
2023-04-16T10:51:56.424Z,21.58
2023-04-16T10:54:27.949Z,23.42
2023-04-16T10:57:04.490Z,18.67
2023-04-16T10:59:35.997Z,24.20
2023-04-16T11:02:08.777Z,21.42
2023-04-16T11:04:38.138Z,24.58
2023-04-16T11:07:16.963Z,28.17
2023-04-16T11:10:12.922Z,20.60
2023-04-16T11:12:40.456Z,20.50
2023-04-16T11:15:11.228Z,17.00
2023-04-16T11:17:38.014Z,17.30
2023-04-16T11:20:20.498Z,14.20
2023-04-16T11:22:52.060Z,16.60
2023-04-16T11:25:23.235Z,14.05
2023-04-16T11:27:50.813Z,14.90
2023-04-16T11:30:18.346Z,15.13
2023-04-16T11:32:46.486Z,12.77
2023-04-16T11:35:18.140Z,11.77
2023-04-16T11:37:46.348Z,12.48
2023-04-16T11:40:13.057Z,10.15
2023-04-16T11:42:41.395Z,13.18
2023-04-16T11:45:09.942Z,12.07
2023-04-16T11:47:44.598Z,11.10
2023-04-16T11:50:22.616Z,13.77
2023-04-16T11:52:50.737Z,14.75
2023-04-16T11:55:17.846Z,15.32
2023-04-16T11:57:45.688Z,12.07
2023-04-16T12:00:14.272Z,13.18
2023-04-16T12:05:32.256Z,12.88
2023-04-16T12:10:27.087Z,13.32
2023-04-16T12:12:53.683Z,15.27
2023-04-16T12:15:20.351Z,14.15
2023-04-16T12:17:47.843Z,12.65
2023-04-16T12:20:15.734Z,12.93
2023-04-16T12:22:48.241Z,12.43
2023-04-16T12:25:17.055Z,12.45
2023-04-16T12:27:55.879Z,13.07
2023-04-16T12:30:23.890Z,12.35
2023-04-16T12:32:52.232Z,13.63
2023-04-16T12:35:33.553Z,10.70
2023-04-16T12:38:01.549Z,11.20
2023-04-16T12:40:28.238Z,9.88
2023-04-16T12:42:55.064Z,11.55
2023-04-16T12:45:22.288Z,12.80
2023-04-16T12:47:50.531Z,12.15
2023-04-16T12:50:18.012Z,14.63
2023-04-16T12:52:44.664Z,15.00
2023-04-16T12:55:12.554Z,13.32
2023-04-16T12:57:39.107Z,12.63
2023-04-16T13:00:06.704Z,13.02
2023-04-16T13:02:33.398Z,15.02
2023-04-16T13:05:00.140Z,14.80
2023-04-16T13:07:28.202Z,13.65
2023-04-16T13:09:54.957Z,13.05
2023-04-16T13:12:21.702Z,12.85
2023-04-16T13:14:48.210Z,13.52
2023-04-16T13:17:15.102Z,13.18
2023-04-16T13:19:41.610Z,12.48
2023-04-16T13:22:08.450Z,15.40
2023-04-16T13:24:35.097Z,14.32
2023-04-16T13:27:01.647Z,13.20
2023-04-16T13:29:28.385Z,14.38
2023-04-16T13:31:55.237Z,16.70
2023-04-16T13:34:21.869Z,13.23
2023-04-16T13:36:48.726Z,15.50
2023-04-16T13:39:15.831Z,14.85
2023-04-16T13:41:43.342Z,12.75
2023-04-16T13:44:10.047Z,16.15
2023-04-16T13:46:36.704Z,13.00
2023-04-16T13:49:03.299Z,14.70
2023-04-16T13:51:29.934Z,14.20
2023-04-16T13:53:56.466Z,14.35
2023-04-16T13:56:23.086Z,13.65
2023-04-16T13:58:49.693Z,12.48
2023-04-16T14:01:17.364Z,13.18
2023-04-16T14:03:44.457Z,14.20
2023-04-16T14:06:11.331Z,12.82
2023-04-16T14:08:38.311Z,14.35
2023-04-16T14:11:06.502Z,11.43
2023-04-16T14:13:33.198Z,14.05
2023-04-16T14:15:59.888Z,14.60
2023-04-16T14:18:26.426Z,14.65
2023-04-16T14:20:53.152Z,12.70
2023-04-16T14:23:19.781Z,14.98
2023-04-16T14:25:46.374Z,13.50
2023-04-16T14:28:15.498Z,13.90
2023-04-16T14:30:42.626Z,15.00
2023-04-16T14:33:09.246Z,16.48
2023-04-16T14:35:36.117Z,13.40
2023-04-16T14:38:02.932Z,16.38
2023-04-16T14:40:29.531Z,15.70
2023-04-16T14:42:56.078Z,11.57
2023-04-16T14:45:23.171Z,12.32
2023-04-16T14:47:50.830Z,14.32
2023-04-16T14:50:17.447Z,13.43
2023-04-16T14:52:44.001Z,12.70
2023-04-16T14:55:10.666Z,13.82
2023-04-16T14:57:38.684Z,15.27
2023-04-16T15:00:13.324Z,14.48
2023-04-16T15:02:40.029Z,15.85
2023-04-16T15:05:09.906Z,13.68
2023-04-16T15:07:37.108Z,14.23
2023-04-16T15:10:03.952Z,15.02
2023-04-16T15:12:30.851Z,14.45
2023-04-16T15:14:57.495Z,15.30
2023-04-16T15:17:24.142Z,18.02
2023-04-16T15:19:52.455Z,22.23
2023-04-16T15:22:19.452Z,15.48
2023-04-16T15:24:46.231Z,16.38
2023-04-16T15:27:14.717Z,15.45
2023-04-16T15:29:41.304Z,14.80
2023-04-16T15:32:08.046Z,14.27
2023-04-16T15:34:34.831Z,12.50
2023-04-16T15:37:01.921Z,12.45
2023-04-16T15:39:28.527Z,9.40
2023-04-16T15:42:01.148Z,11.73
2023-04-16T15:44:30.228Z,12.75
2023-04-16T15:46:56.830Z,11.50
2023-04-16T15:49:24.705Z,13.93
2023-04-16T15:51:52.021Z,15.13
2023-04-16T15:54:18.813Z,14.68
2023-04-16T15:56:46.600Z,16.00
2023-04-16T15:59:13.781Z,13.80
2023-04-16T16:01:40.894Z,12.80
2023-04-16T16:04:08.315Z,18.27
2023-04-16T16:06:35.275Z,11.43
2023-04-16T16:09:01.880Z,14.20
2023-04-16T16:11:28.556Z,15.88
2023-04-16T16:13:55.251Z,14.57
2023-04-16T16:16:22.047Z,16.88
2023-04-16T16:18:49.110Z,22.23
2023-04-16T16:21:16.154Z,15.65
2023-04-16T16:23:42.711Z,18.05
2023-04-16T16:26:09.404Z,15.95
2023-04-16T16:28:43.810Z,13.48
2023-04-16T16:31:12.428Z,14.35
2023-04-16T16:33:40.472Z,15.82
2023-04-16T16:36:10.814Z,13.50
2023-04-16T16:38:41.202Z,16.95
2023-04-16T16:41:08.144Z,15.48
2023-04-16T16:43:36.187Z,18.63
2023-04-16T16:46:02.791Z,15.35
2023-04-16T16:48:29.487Z,19.05
2023-04-16T16:50:56.266Z,17.45
2023-04-16T16:53:22.808Z,17.48
2023-04-16T16:55:49.473Z,22.45
2023-04-16T16:58:16.072Z,20.27
2023-04-16T17:00:42.628Z,17.95
2023-04-16T17:03:09.601Z,20.67
2023-04-16T17:05:36.623Z,17.30
2023-04-16T17:08:03.384Z,19.50
2023-04-16T17:10:29.881Z,18.80
2023-04-16T17:12:56.421Z,17.10
2023-04-16T17:15:23.123Z,19.63
2023-04-16T17:17:49.731Z,21.60
2023-04-16T17:20:16.308Z,20.10
2023-04-16T17:22:42.898Z,21.50
2023-04-16T17:25:09.940Z,20.88
2023-04-16T17:27:36.706Z,23.15
2023-04-16T17:30:07.224Z,18.13
2023-04-16T17:32:33.894Z,22.40
2023-04-16T17:35:04.013Z,16.10
2023-04-16T17:37:30.910Z,24.17
2023-04-16T17:39:57.488Z,19.02
2023-04-16T17:42:24.694Z,18.80
2023-04-16T17:44:51.497Z,23.77
2023-04-16T17:47:18.150Z,23.33
2023-04-16T17:49:44.805Z,21.90
2023-04-16T17:52:11.297Z,24.05
2023-04-16T17:54:37.802Z,21.08
2023-04-16T17:57:04.399Z,23.10
2023-04-16T17:59:30.921Z,25.73
2023-04-16T18:01:57.728Z,23.02
2023-04-16T18:04:24.516Z,24.60
2023-04-16T18:06:51.298Z,22.45
2023-04-16T18:09:19.334Z,26.45
2023-04-16T18:11:45.923Z,21.65
2023-04-16T18:14:16.678Z,25.33
2023-04-16T18:16:43.575Z,22.30
2023-04-16T18:19:10.378Z,24.75
2023-04-16T18:21:37.217Z,33.08
2023-04-16T18:24:24.481Z,25.95
2023-04-16T18:26:51.355Z,23.65
2023-04-16T18:29:18.416Z,20.25
2023-04-16T18:31:45.358Z,25.08
2023-04-16T18:34:12.551Z,26.33
2023-04-16T18:36:39.317Z,20.00
2023-04-16T18:39:07.474Z,21.38
2023-04-16T18:41:34.145Z,17.45
2023-04-16T18:44:00.651Z,19.02
2023-04-16T18:46:27.812Z,24.00
2023-04-16T18:48:54.748Z,19.35
2023-04-16T18:51:21.430Z,18.67
2023-04-16T18:53:47.997Z,24.73
2023-04-16T18:56:14.611Z,20.38
2023-04-16T18:58:41.426Z,20.65
2023-04-16T19:01:11.384Z,18.77
2023-04-16T19:03:38.668Z,17.83
2023-04-16T19:06:06.183Z,17.58
2023-04-16T19:08:33.255Z,19.63
2023-04-16T19:11:00.036Z,18.65
2023-04-16T19:13:26.640Z,19.95
2023-04-16T19:15:58.522Z,19.83
2023-04-16T19:18:25.281Z,20.83
2023-04-16T19:20:51.824Z,19.85
2023-04-16T19:23:19.181Z,20.55
2023-04-16T19:25:45.822Z,18.27
2023-04-16T19:28:12.360Z,19.58
2023-04-16T19:30:40.331Z,19.45
2023-04-16T19:33:06.911Z,23.50
2023-04-16T19:35:34.654Z,18.75
2023-04-16T19:38:01.293Z,21.33
2023-04-16T19:40:27.873Z,19.83
2023-04-16T19:42:54.903Z,19.05
2023-04-16T19:45:25.724Z,16.83
2023-04-16T19:47:52.383Z,21.63
2023-04-16T19:50:19.606Z,20.10
2023-04-16T19:52:46.279Z,20.55
2023-04-16T19:55:12.956Z,21.35
2023-04-16T19:57:39.560Z,19.33
2023-04-16T20:00:11.507Z,20.95
2023-04-16T20:02:38.272Z,17.10
2023-04-16T20:05:05.458Z,20.65
2023-04-16T20:07:32.007Z,17.45
2023-04-16T20:09:58.763Z,20.63
2023-04-16T20:12:25.349Z,12.98
2023-04-16T20:14:51.988Z,20.58
2023-04-16T20:17:19.928Z,21.25
2023-04-16T20:19:51.185Z,22.77
2023-04-16T20:22:18.861Z,14.30
2023-04-16T20:24:47.871Z,24.15
2023-04-16T20:27:15.324Z,18.95
2023-04-16T20:29:42.407Z,20.33
2023-04-16T20:32:09.022Z,17.00
2023-04-16T20:34:36.742Z,17.90
2023-04-16T20:37:03.827Z,20.55
2023-04-16T20:39:34.042Z,17.02
2023-04-16T20:42:04.226Z,19.02
2023-04-16T20:44:40.356Z,19.10
2023-04-16T20:47:08.253Z,22.67
2023-04-16T20:49:35.042Z,20.75
2023-04-16T20:52:02.833Z,21.20
2023-04-16T20:54:29.938Z,19.42
2023-04-16T20:56:57.412Z,22.92
2023-04-16T20:59:24.442Z,21.13
2023-04-16T21:01:52.227Z,19.10
2023-04-16T21:04:19.110Z,16.67
2023-04-16T21:06:45.800Z,25.35
2023-04-16T21:09:13.452Z,20.42
2023-04-16T21:11:40.371Z,19.63
2023-04-16T21:14:07.020Z,16.42
2023-04-16T21:16:33.592Z,23.27
2023-04-16T21:19:00.140Z,17.98
2023-04-16T21:21:27.505Z,22.30
2023-04-16T21:23:54.114Z,20.20
2023-04-16T21:26:20.993Z,20.77
2023-04-16T21:28:47.559Z,22.85
2023-04-16T21:31:14.248Z,24.25
2023-04-16T21:33:40.882Z,25.67
2023-04-16T21:36:07.688Z,21.55
2023-04-16T21:38:34.258Z,24.02
2023-04-16T21:41:01.776Z,23.02
2023-04-16T21:43:32.129Z,22.08
2023-04-16T21:45:59.768Z,24.88
2023-04-16T21:48:27.057Z,19.27
2023-04-16T21:51:06.744Z,26.95
2023-04-16T21:53:34.161Z,29.45
2023-04-16T21:56:00.995Z,30.77
2023-04-16T21:58:27.905Z,25.73
2023-04-16T22:00:54.572Z,24.85
2023-04-16T22:03:30.599Z,17.60
2023-04-16T22:06:01.404Z,24.38
2023-04-16T22:08:29.036Z,25.73
2023-04-16T22:11:00.143Z,23.42
2023-04-16T22:13:27.335Z,23.30
2023-04-16T22:15:55.957Z,23.38
2023-04-16T22:18:26.778Z,28.10
2023-04-16T22:20:55.027Z,26.95
2023-04-16T22:23:25.349Z,23.52
2023-04-16T22:25:54.491Z,29.52
2023-04-16T22:28:21.214Z,30.13
2023-04-16T22:30:48.050Z,25.42
2023-04-16T22:33:14.963Z,26.50
2023-04-16T22:35:41.574Z,29.92
2023-04-16T22:38:08.140Z,26.67
2023-04-16T22:40:34.687Z,31.42
2023-04-16T22:43:01.186Z,25.00
2023-04-16T22:45:31.717Z,26.48
2023-04-16T22:47:58.308Z,30.25
2023-04-16T22:50:24.890Z,29.35
2023-04-16T22:52:51.412Z,31.10
2023-04-16T22:55:47.764Z,27.70
2023-04-16T22:58:14.263Z,27.30
2023-04-16T23:00:40.712Z,26.25
2023-04-16T23:03:07.384Z,23.00
2023-04-16T23:05:34.758Z,33.03
2023-04-16T23:08:01.318Z,34.20
2023-04-16T23:10:27.829Z,26.90
2023-04-16T23:12:54.359Z,31.05
2023-04-16T23:15:20.923Z,29.02
2023-04-16T23:17:47.502Z,29.27
2023-04-16T23:20:14.118Z,28.67
2023-04-16T23:22:41.173Z,29.45
2023-04-16T23:25:11.126Z,28.23
2023-04-16T23:27:37.765Z,19.92
2023-04-16T23:30:05.436Z,34.42
2023-04-16T23:32:33.991Z,30.08
2023-04-16T23:35:00.852Z,27.90
2023-04-16T23:37:27.326Z,32.10
2023-04-16T23:39:54.025Z,28.63
2023-04-16T23:42:20.602Z,23.95
2023-04-16T23:44:53.885Z,28.35
2023-04-16T23:47:20.517Z,25.13
2023-04-16T23:49:47.035Z,24.20
2023-04-16T23:52:13.772Z,35.05
2023-04-16T23:54:40.308Z,28.27
2023-04-16T23:57:15.270Z,27.23
2023-04-16T23:59:41.870Z,28.40
